Time;durP1;ratioP1;P1;durP2;ratioP2;P2;SDS_P1;SDS_P2;PMS_P1;PMS_P2;Temp;Humidity;BMP_temperature;BMP_pressure;BME280_temperature;BME280_humidity;BME280_pressure;Samples;Min_cycle;Max_cycle;Signal;HPM_P1;HPM_P2
2022/08/26 00:00:03;;;;;;;10.87;3.70;;;;;;;;;;5280761;28;20035;-68
2022/08/26 00:02:34;;;;;;;10.05;4.50;;;;;;;;;;5280499;28;20653;-68
2022/08/26 00:05:06;;;;;;;11.53;4.23;;;;;;;;;;5281395;28;20026;-68
2022/08/26 00:07:37;;;;;;;11.32;5.05;;;;;;;;;;5280490;28;20271;-68
2022/08/26 00:10:08;;;;;;;12.70;5.80;;;;;;;;;;5281407;28;20153;-68
2022/08/26 00:12:41;;;;;;;13.27;5.65;;;;;;;;;;5279993;28;20291;-67
2022/08/26 00:15:14;;;;;;;8.25;4.60;;;;;;;;;;5281016;28;20030;-68
2022/08/26 00:17:45;;;;;;;14.40;5.10;;;;;;;;;;5280682;28;20886;-68
2022/08/26 00:20:20;;;;;;;9.35;4.38;;;;;;;;;;5280298;28;20032;-68
2022/08/26 00:22:51;;;;;;;11.57;4.55;;;;;;;;;;5280575;28;20013;-68
2022/08/26 00:25:22;;;;;;;10.65;4.80;;;;;;;;;;5281099;28;20032;-68
2022/08/26 00:27:53;;;;;;;10.93;4.97;;;;;;;;;;5279531;28;20017;-68
2022/08/26 00:30:25;;;;;;;10.02;5.03;;;;;;;;;;5280379;28;20115;-68
2022/08/26 00:32:57;;;;;;;13.27;5.55;;;;;;;;;;5280683;28;20480;-68
2022/08/26 00:35:28;;;;;;;9.73;4.63;;;;;;;;;;5279490;28;20384;-68
2022/08/26 00:38:00;;;;;;;10.45;4.78;;;;;;;;;;5280551;28;20016;-68
2022/08/26 00:40:34;;;;;;;17.45;6.05;;;;;;;;;;5279445;28;20028;-68
2022/08/26 00:43:05;;;;;;;12.93;4.20;;;;;;;;;;5280744;28;20032;-68
2022/08/26 00:45:39;;;;;;;11.13;4.30;;;;;;;;;;5280116;28;20023;-68
2022/08/26 00:48:11;;;;;;;10.77;5.10;;;;;;;;;;5280347;28;20101;-68
2022/08/26 00:50:48;;;;;;;12.57;3.88;;;;;;;;;;5279818;28;20029;-68
2022/08/26 00:53:22;;;;;;;16.27;5.50;;;;;;;;;;5280521;28;20051;-68
2022/08/26 00:55:58;;;;;;;16.35;4.70;;;;;;;;;;5279747;28;20024;-68
2022/08/26 00:58:30;;;;;;;13.38;4.75;;;;;;;;;;5280099;28;20038;-68
2022/08/26 01:01:02;;;;;;;11.75;4.53;;;;;;;;;;5280323;28;20103;-67
2022/08/26 01:03:33;;;;;;;11.43;4.03;;;;;;;;;;5278163;28;20159;-67
2022/08/26 01:06:06;;;;;;;10.30;3.90;;;;;;;;;;5280577;28;20028;-68
2022/08/26 01:08:37;;;;;;;10.70;3.80;;;;;;;;;;5279014;28;20052;-67
2022/08/26 01:11:10;;;;;;;11.43;3.25;;;;;;;;;;5280210;28;20051;-68
2022/08/26 01:13:41;;;;;;;14.88;3.20;;;;;;;;;;5279746;28;20496;-68
2022/08/26 01:16:13;;;;;;;7.88;2.83;;;;;;;;;;5279641;28;20115;-68
2022/08/26 01:18:45;;;;;;;8.68;2.75;;;;;;;;;;5279831;28;20020;-68
2022/08/26 01:21:23;;;;;;;12.45;2.97;;;;;;;;;;5280193;28;20024;-68
2022/08/26 01:23:55;;;;;;;11.27;3.53;;;;;;;;;;5279252;28;20022;-68
2022/08/26 01:26:32;;;;;;;8.45;2.30;;;;;;;;;;5280139;28;20028;-68
2022/08/26 01:29:05;;;;;;;6.32;2.60;;;;;;;;;;5280750;28;20119;-68
2022/08/26 01:31:41;;;;;;;9.38;2.97;;;;;;;;;;5278942;28;20098;-68
2022/08/26 01:34:16;;;;;;;13.02;3.15;;;;;;;;;;5280176;28;20423;-67
2022/08/26 01:36:53;;;;;;;11.88;3.58;;;;;;;;;;5278733;28;20436;-67
2022/08/26 01:39:24;;;;;;;8.32;2.35;;;;;;;;;;5280410;28;20029;-67
2022/08/26 01:41:56;;;;;;;7.50;3.67;;;;;;;;;;5280587;28;20355;-67
2022/08/26 01:44:29;;;;;;;8.13;2.78;;;;;;;;;;5279658;28;20032;-68
2022/08/26 01:47:01;;;;;;;14.43;3.20;;;;;;;;;;5280833;28;20013;-68
2022/08/26 01:49:34;;;;;;;9.95;2.58;;;;;;;;;;5280486;28;20424;-68
2022/08/26 01:52:07;;;;;;;12.20;2.78;;;;;;;;;;5280276;28;20447;-68
2022/08/26 01:54:38;;;;;;;6.47;2.35;;;;;;;;;;5280332;28;20441;-68
2022/08/26 01:57:09;;;;;;;8.13;1.98;;;;;;;;;;5280766;28;20100;-68
2022/08/26 01:59:41;;;;;;;6.05;1.65;;;;;;;;;;5279652;28;20044;-67
2022/08/26 02:02:12;;;;;;;10.95;1.70;;;;;;;;;;5280617;28;20060;-68
2022/08/26 02:04:48;;;;;;;6.50;1.60;;;;;;;;;;5280264;28;20028;-67
2022/08/26 02:07:20;;;;;;;10.70;1.98;;;;;;;;;;5280651;28;20259;-67
2022/08/26 02:09:51;;;;;;;6.50;1.65;;;;;;;;;;5280024;28;20025;-67
2022/08/26 02:12:24;;;;;;;8.63;1.40;;;;;;;;;;5280062;28;20081;-67
2022/08/26 02:14:58;;;;;;;7.32;1.52;;;;;;;;;;5283805;28;20279;-68
2022/08/26 02:17:33;;;;;;;7.97;0.98;;;;;;;;;;5283942;28;20021;-67
2022/08/26 02:20:05;;;;;;;6.53;1.15;;;;;;;;;;5283616;28;20544;-68
2022/08/26 02:22:37;;;;;;;5.82;1.00;;;;;;;;;;5283466;28;20027;-68
2022/08/26 02:25:25;;;;;;;6.22;0.98;;;;;;;;;;5284162;28;20009;-67
2022/08/26 02:27:56;;;;;;;;;;;;;;;;;;5283860;28;20146;-68
2022/08/26 02:30:30;;;;;;;6.93;0.90;;;;;;;;;;5283464;28;20376;-68
2022/08/26 02:33:02;;;;;;;6.97;1.25;;;;;;;;;;5283216;28;20040;-67
2022/08/26 02:35:34;;;;;;;5.63;1.00;;;;;;;;;;5283758;28;20056;-68
2022/08/26 02:38:06;;;;;;;7.22;0.90;;;;;;;;;;5283965;28;20016;-68
2022/08/26 02:40:39;;;;;;;6.30;0.88;;;;;;;;;;5282770;28;20032;-68
2022/08/26 02:43:11;;;;;;;6.78;1.10;;;;;;;;;;5283882;28;20025;-68
2022/08/26 02:45:42;;;;;;;6.25;1.00;;;;;;;;;;5283224;28;20454;-68
2022/08/26 02:48:15;;;;;;;6.13;1.00;;;;;;;;;;5283180;28;20023;-67
2022/08/26 02:50:47;;;;;;;8.27;0.95;;;;;;;;;;5283279;28;20032;-67
2022/08/26 02:53:19;;;;;;;7.80;0.80;;;;;;;;;;5283589;28;20050;-67
2022/08/26 02:55:50;;;;;;;7.53;0.80;;;;;;;;;;5282187;28;20367;-68
2022/08/26 02:58:22;;;;;;;8.15;0.85;;;;;;;;;;5283519;28;20383;-68
2022/08/26 03:00:53;;;;;;;3.90;0.80;;;;;;;;;;5283115;28;20386;-68
2022/08/26 03:03:24;;;;;;;7.00;1.80;;;;;;;;;;5282486;28;20086;-68
2022/08/26 03:05:55;;;;;;;6.15;1.00;;;;;;;;;;5283144;28;20751;-67
2022/08/26 03:08:26;;;;;;;6.83;1.30;;;;;;;;;;5282153;28;20372;-68
2022/08/26 03:10:58;;;;;;;5.18;1.17;;;;;;;;;;5283499;28;20328;-68
2022/08/26 03:13:29;;;;;;;4.28;0.80;;;;;;;;;;5282887;28;20013;-68
2022/08/26 03:16:00;;;;;;;6.93;1.42;;;;;;;;;;5282827;28;20029;-68
2022/08/26 03:18:32;;;;;;;6.38;1.30;;;;;;;;;;5282636;28;20017;-67
2022/08/26 03:21:07;;;;;;;8.18;1.50;;;;;;;;;;5283399;28;20028;-67
2022/08/26 03:23:39;;;;;;;7.07;1.90;;;;;;;;;;5281943;28;20020;-68
2022/08/26 03:26:11;;;;;;;6.05;1.75;;;;;;;;;;5282276;28;20078;-68
2022/08/26 03:31:34;;;;;;;11.27;1.48;;;;;;;;;;5250487;28;20067;-68
2022/08/26 03:34:06;;;;;;;5.25;1.05;;;;;;;;;;5282995;28;20012;-68
2022/08/26 03:36:37;;;;;;;7.27;1.40;;;;;;;;;;5281624;28;20089;-68
2022/08/26 03:39:09;;;;;;;7.82;1.38;;;;;;;;;;5282764;28;20263;-67
2022/08/26 03:41:40;;;;;;;8.27;1.15;;;;;;;;;;5282072;28;20021;-68
2022/08/26 03:44:11;;;;;;;4.70;1.60;;;;;;;;;;5282167;28;20095;-68
2022/08/26 03:46:43;;;;;;;8.10;0.95;;;;;;;;;;5282109;28;20267;-68
2022/08/26 03:49:14;;;;;;;5.97;1.35;;;;;;;;;;5282418;28;20025;-68
2022/08/26 03:51:46;;;;;;;8.67;1.20;;;;;;;;;;5281217;28;20513;-68
2022/08/26 03:54:17;;;;;;;6.95;1.45;;;;;;;;;;5282515;28;20255;-67
2022/08/26 03:56:48;;;;;;;9.87;1.50;;;;;;;;;;5282319;28;20371;-68
2022/08/26 03:59:19;;;;;;;7.47;0.90;;;;;;;;;;5281761;28;20332;-67
2022/08/26 04:01:50;;;;;;;7.50;1.13;;;;;;;;;;5281636;28;20271;-67
2022/08/26 04:04:21;;;;;;;7.43;1.03;;;;;;;;;;5281539;28;20328;-68
2022/08/26 04:06:59;;;;;;;7.35;1.60;;;;;;;;;;5281544;28;20607;-68
2022/08/26 04:09:30;;;;;;;7.38;0.85;;;;;;;;;;5281563;28;20040;-68
2022/08/26 04:12:02;;;;;;;10.35;2.13;;;;;;;;;;5281380;28;20025;-68
2022/08/26 04:14:36;;;;;;;7.00;0.90;;;;;;;;;;5281547;28;20024;-68
2022/08/26 04:17:07;;;;;;;6.63;1.45;;;;;;;;;;5282041;28;20122;-68
2022/08/26 04:19:39;;;;;;;8.00;0.90;;;;;;;;;;5280895;28;20131;-68
2022/08/26 04:22:11;;;;;;;11.57;1.15;;;;;;;;;;5282004;28;20255;-68
2022/08/26 04:24:42;;;;;;;5.75;0.77;;;;;;;;;;5281413;28;20103;-67
2022/08/26 04:27:13;;;;;;;5.57;0.90;;;;;;;;;;5281075;28;20024;-68
2022/08/26 04:29:45;;;;;;;7.78;0.93;;;;;;;;;;5281199;28;20058;-67
2022/08/26 04:32:16;;;;;;;7.05;0.80;;;;;;;;;;5281595;28;20139;-68
2022/08/26 04:34:47;;;;;;;5.10;0.77;;;;;;;;;;5280441;28;20479;-68
2022/08/26 04:37:18;;;;;;;7.15;1.55;;;;;;;;;;5281499;28;20012;-68
2022/08/26 04:39:53;;;;;;;6.27;0.73;;;;;;;;;;5280284;28;20351;-68
2022/08/26 04:42:24;;;;;;;7.40;0.73;;;;;;;;;;5281094;28;20262;-68
2022/08/26 04:44:55;;;;;;;6.10;1.02;;;;;;;;;;5281143;28;20347;-67
2022/08/26 04:47:26;;;;;;;9.73;0.90;;;;;;;;;;5280191;28;20375;-68
2022/08/26 04:49:57;;;;;;;5.78;0.90;;;;;;;;;;5281476;28;20028;-68
2022/08/26 04:52:28;;;;;;;11.10;1.53;;;;;;;;;;5280855;28;20271;-67
2022/08/26 04:55:00;;;;;;;6.43;0.60;;;;;;;;;;5280745;28;20262;-68
2022/08/26 04:57:32;;;;;;;9.10;1.10;;;;;;;;;;5281047;28;20016;-68
2022/08/26 05:00:05;;;;;;;6.00;0.70;;;;;;;;;;5281379;28;20346;-68
2022/08/26 05:02:36;;;;;;;7.68;0.70;;;;;;;;;;5279887;28;20134;-68
2022/08/26 05:05:07;;;;;;;7.53;0.70;;;;;;;;;;5281493;28;20017;-67
2022/08/26 05:07:39;;;;;;;3.63;0.70;;;;;;;;;;5280146;28;20108;-67
2022/08/26 05:10:10;;;;;;;9.60;1.45;;;;;;;;;;5281234;28;20094;-67
2022/08/26 05:12:41;;;;;;;3.67;0.50;;;;;;;;;;5280650;28;20035;-67
2022/08/26 05:15:13;;;;;;;6.05;1.20;;;;;;;;;;5280471;28;20251;-67
2022/08/26 05:17:44;;;;;;;7.43;1.15;;;;;;;;;;5280563;28;20622;-67
2022/08/26 05:20:15;;;;;;;6.03;0.70;;;;;;;;;;5281257;28;20112;-67
2022/08/26 05:22:46;;;;;;;6.10;0.57;;;;;;;;;;5279821;28;20419;-68
2022/08/26 05:25:18;;;;;;;6.18;0.70;;;;;;;;;;5281169;28;20074;-67
2022/08/26 05:27:49;;;;;;;5.38;1.33;;;;;;;;;;5280410;28;20020;-67
2022/08/26 05:30:20;;;;;;;6.00;0.60;;;;;;;;;;5280417;28;20029;-67
2022/08/26 05:32:51;;;;;;;5.90;1.23;;;;;;;;;;5280683;28;20343;-67
2022/08/26 05:35:22;;;;;;;3.53;0.60;;;;;;;;;;5280821;28;20039;-67
2022/08/26 05:37:53;;;;;;;4.88;0.60;;;;;;;;;;5279549;28;20372;-67
2022/08/26 05:40:25;;;;;;;5.07;0.60;;;;;;;;;;5280639;28;20360;-67
2022/08/26 05:42:58;;;;;;;5.32;0.50;;;;;;;;;;5280284;28;20484;-67
2022/08/26 05:45:31;;;;;;;6.50;0.63;;;;;;;;;;5280505;28;20043;-66
2022/08/26 05:48:02;;;;;;;5.72;0.98;;;;;;;;;;5281151;28;20021;-67
2022/08/26 05:50:40;;;;;;;3.42;0.50;;;;;;;;;;5283485;28;20059;-68
2022/08/26 05:53:12;;;;;;;4.28;0.47;;;;;;;;;;5285073;28;20024;-68
2022/08/26 05:55:44;;;;;;;7.55;0.60;;;;;;;;;;5284365;28;20024;-68
2022/08/26 05:58:18;;;;;;;5.35;0.50;;;;;;;;;;5284066;28;20056;-68
2022/08/26 06:00:57;;;;;;;7.35;0.60;;;;;;;;;;5284336;28;20027;-68
2022/08/26 06:03:30;;;;;;;8.77;0.63;;;;;;;;;;5284004;28;20570;-68
2022/08/26 06:06:02;;;;;;;7.72;0.82;;;;;;;;;;5284105;28;20056;-67
2022/08/26 06:08:34;;;;;;;5.10;0.50;;;;;;;;;;5284076;28;20025;-68
2022/08/26 06:11:06;;;;;;;9.40;0.50;;;;;;;;;;5283722;28;20052;-68
2022/08/26 06:13:38;;;;;;;4.00;0.50;;;;;;;;;;5283791;28;20027;-68
2022/08/26 06:16:11;;;;;;;6.88;1.17;;;;;;;;;;5284485;28;20108;-67
2022/08/26 06:18:43;;;;;;;7.63;0.60;;;;;;;;;;5283016;28;20032;-66
2022/08/26 06:21:16;;;;;;;6.82;0.50;;;;;;;;;;5284396;28;20433;-67
2022/08/26 06:26:39;;;;;;;4.20;0.50;;;;;;;;;;5283101;28;20483;-67
2022/08/26 06:29:10;;;;;;;5.03;0.43;;;;;;;;;;5284342;28;20032;-68
2022/08/26 06:31:41;;;;;;;6.85;0.65;;;;;;;;;;5283552;28;20020;-68
2022/08/26 06:34:13;;;;;;;6.40;0.40;;;;;;;;;;5283418;28;20020;-68
2022/08/26 06:36:44;;;;;;;4.47;0.50;;;;;;;;;;5283362;28;20012;-68
2022/08/26 06:39:16;;;;;;;4.83;0.40;;;;;;;;;;5283424;28;20044;-67
2022/08/26 06:41:47;;;;;;;5.25;0.40;;;;;;;;;;5283503;28;20657;-66
2022/08/26 06:44:19;;;;;;;4.90;0.30;;;;;;;;;;5283896;28;20069;-67
2022/08/26 06:46:50;;;;;;;4.85;0.40;;;;;;;;;;5282629;28;20048;-67
2022/08/26 06:49:21;;;;;;;6.15;0.45;;;;;;;;;;5284029;28;20425;-68
2022/08/26 06:51:54;;;;;;;5.88;0.60;;;;;;;;;;5283348;28;20031;-67
2022/08/26 06:54:26;;;;;;;6.70;0.50;;;;;;;;;;5282866;28;20052;-68
2022/08/26 06:56:57;;;;;;;5.38;0.40;;;;;;;;;;5283596;28;20023;-67
2022/08/26 06:59:29;;;;;;;6.75;0.60;;;;;;;;;;5282147;28;20566;-68
2022/08/26 07:02:01;;;;;;;5.18;0.73;;;;;;;;;;5282222;28;20037;-67
2022/08/26 07:04:32;;;;;;;7.88;0.50;;;;;;;;;;5282756;28;20148;-67
2022/08/26 07:07:04;;;;;;;6.80;0.55;;;;;;;;;;5283513;28;20028;-67
2022/08/26 07:09:36;;;;;;;5.65;0.40;;;;;;;;;;5281728;28;20486;-69
2022/08/26 07:12:08;;;;;;;4.82;0.40;;;;;;;;;;5283262;28;20020;-68
2022/08/26 07:14:39;;;;;;;7.30;0.45;;;;;;;;;;5282115;28;20499;-69
2022/08/26 07:17:10;;;;;;;3.13;0.30;;;;;;;;;;5283411;28;20150;-70
2022/08/26 07:19:42;;;;;;;4.38;0.40;;;;;;;;;;5282673;28;20278;-68
2022/08/26 07:22:13;;;;;;;5.47;0.60;;;;;;;;;;5282276;28;20166;-68
2022/08/26 07:24:44;;;;;;;10.02;0.88;;;;;;;;;;5282591;28;20927;-68
2022/08/26 07:27:16;;;;;;;4.60;0.40;;;;;;;;;;5283336;28;20017;-69
2022/08/26 07:29:47;;;;;;;8.18;0.50;;;;;;;;;;5281730;28;20029;-69
2022/08/26 07:32:18;;;;;;;5.35;0.40;;;;;;;;;;5283020;28;20020;-67
2022/08/26 07:34:49;;;;;;;7.00;0.60;;;;;;;;;;5282084;28;20025;-67
2022/08/26 07:37:21;;;;;;;8.88;0.50;;;;;;;;;;5282142;28;20380;-68
2022/08/26 07:39:52;;;;;;;4.00;0.38;;;;;;;;;;5282478;28;20024;-67
2022/08/26 07:42:23;;;;;;;6.10;0.50;;;;;;;;;;5281738;28;20104;-68
2022/08/26 07:44:55;;;;;;;7.35;0.50;;;;;;;;;;5282356;28;20259;-67
2022/08/26 07:47:26;;;;;;;4.50;0.82;;;;;;;;;;5281936;28;20035;-67
2022/08/26 07:49:57;;;;;;;6.40;0.50;;;;;;;;;;5282160;28;20027;-67
2022/08/26 07:52:29;;;;;;;5.10;0.40;;;;;;;;;;5281708;28;20259;-67
2022/08/26 07:55:01;;;;;;;5.53;0.52;;;;;;;;;;5282453;28;20052;-67
2022/08/26 07:57:33;;;;;;;6.90;0.50;;;;;;;;;;5281100;28;20061;-67
2022/08/26 08:00:07;;;;;;;5.07;1.27;;;;;;;;;;5282616;28;20474;-67
2022/08/26 08:02:38;;;;;;;5.32;0.43;;;;;;;;;;5281606;28;20016;-67
2022/08/26 08:05:11;;;;;;;5.07;0.40;;;;;;;;;;5281690;28;20017;-67
2022/08/26 08:07:43;;;;;;;3.60;0.55;;;;;;;;;;5281797;28;20405;-68
2022/08/26 08:10:17;;;;;;;5.75;0.43;;;;;;;;;;5282069;28;20444;-67
2022/08/26 08:12:49;;;;;;;8.10;0.45;;;;;;;;;;5280187;28;20459;-67
2022/08/26 08:15:23;;;;;;;7.72;0.57;;;;;;;;;;5282267;28;20112;-67
2022/08/26 08:17:56;;;;;;;4.45;0.30;;;;;;;;;;5281268;28;20469;-67
2022/08/26 08:20:28;;;;;;;7.00;0.40;;;;;;;;;;5281460;28;20020;-67
2022/08/26 08:23:00;;;;;;;5.95;0.68;;;;;;;;;;5282236;28;20019;-67
2022/08/26 08:25:32;;;;;;;3.08;0.30;;;;;;;;;;5280930;28;20040;-67
2022/08/26 08:28:03;;;;;;;5.00;0.40;;;;;;;;;;5281879;28;20055;-67
2022/08/26 08:30:36;;;;;;;9.40;0.50;;;;;;;;;;5281224;28;20082;-67
2022/08/26 08:33:08;;;;;;;4.80;0.40;;;;;;;;;;5280846;28;20333;-67
2022/08/26 08:35:41;;;;;;;3.87;0.30;;;;;;;;;;5281409;28;20468;-67
2022/08/26 08:38:12;;;;;;;5.07;0.38;;;;;;;;;;5281908;28;20259;-68
2022/08/26 08:40:44;;;;;;;4.57;0.32;;;;;;;;;;5280444;28;20115;-67
2022/08/26 08:43:47;;;;;;;3.90;0.28;;;;;;;;;;5281657;28;20020;-67
2022/08/26 08:46:19;;;;;;;8.30;0.30;;;;;;;;;;5225446;28;20549;-68
2022/08/26 08:48:55;;;;;;;1.67;0.30;;;;;;;;;;5281142;28;20020;-67
2022/08/26 08:51:32;;;;;;;3.22;0.30;;;;;;;;;;5280887;28;20025;-68
2022/08/26 08:54:04;;;;;;;3.10;0.30;;;;;;;;;;5280800;28;20020;-68
2022/08/26 08:56:43;;;;;;;5.88;0.50;;;;;;;;;;5280997;28;20371;-67
2022/08/26 08:59:15;;;;;;;;;;;;;;;;;;5282157;28;20055;-67
2022/08/26 09:02:02;;;;;;;4.80;0.40;;;;;;;;;;5280081;28;19953;-67
2022/08/26 09:04:33;;;;;;;3.92;0.38;;;;;;;;;;5280769;28;20072;-67
2022/08/26 09:07:07;;;;;;;4.35;0.93;;;;;;;;;;5280480;28;20130;-67
2022/08/26 09:09:40;;;;;;;6.47;0.32;;;;;;;;;;5280735;28;20479;-67
2022/08/26 09:12:14;;;;;;;5.82;0.40;;;;;;;;;;5281242;28;20459;-67
2022/08/26 09:14:46;;;;;;;5.50;0.40;;;;;;;;;;5279921;28;20047;-68
2022/08/26 09:17:31;;;;;;;6.38;0.40;;;;;;;;;;5281440;28;20047;-67
2022/08/26 09:20:09;;;;;;;5.38;0.30;;;;;;;;;;5281389;28;20103;-68
2022/08/26 09:22:41;;;;;;;7.07;0.52;;;;;;;;;;5279999;28;20016;-67
2022/08/26 09:25:13;;;;;;;6.65;0.60;;;;;;;;;;5285234;28;20025;-68
2022/08/26 09:27:45;;;;;;;5.72;0.50;;;;;;;;;;5285001;28;20111;-68
2022/08/26 09:30:27;;;;;;;8.02;0.75;;;;;;;;;;5284768;28;20425;-68
2022/08/26 09:33:01;;;;;;;5.90;0.50;;;;;;;;;;5285488;28;20028;-67
2022/08/26 09:35:34;;;;;;;7.85;0.70;;;;;;;;;;5284164;28;20095;-68
2022/08/26 09:38:19;;;;;;;4.45;0.93;;;;;;;;;;5285514;28;20086;-68
2022/08/26 09:40:56;;;;;;;4.57;0.50;;;;;;;;;;5284423;28;20028;-68
2022/08/26 09:43:27;;;;;;;3.17;0.30;;;;;;;;;;5283944;28;20024;-68
2022/08/26 09:46:28;;;;;;;5.80;0.40;;;;;;;;;;5285139;28;20027;-68
2022/08/26 09:49:17;;;;;;;2.97;0.40;;;;;;;;;;5262380;28;20502;-67
2022/08/26 09:52:01;;;;;;;9.48;0.40;;;;;;;;;;5284348;28;20375;-68
2022/08/26 09:54:32;;;;;;;4.05;0.50;;;;;;;;;;5284232;28;20021;-68
2022/08/26 09:57:17;;;;;;;4.72;0.50;;;;;;;;;;5284236;28;20025;-68
2022/08/26 09:59:49;;;;;;;6.47;0.50;;;;;;;;;;5284054;28;20511;-68
2022/08/26 10:02:33;;;;;;;5.28;0.40;;;;;;;;;;5284896;28;20153;-68
2022/08/26 10:05:06;;;;;;;6.90;0.80;;;;;;;;;;5283919;28;20041;-68
2022/08/26 10:07:40;;;;;;;4.95;0.40;;;;;;;;;;5284342;28;20021;-68
2022/08/26 10:10:14;;;;;;;5.20;0.40;;;;;;;;;;5283684;28;20040;-68
2022/08/26 10:12:49;;;;;;;5.20;0.38;;;;;;;;;;5283983;28;20016;-69
2022/08/26 10:15:22;;;;;;;5.68;0.47;;;;;;;;;;5284437;28;20382;-68
2022/08/26 10:18:06;;;;;;;3.85;0.40;;;;;;;;;;5283312;28;20025;-68
2022/08/26 10:20:41;;;;;;;5.95;0.40;;;;;;;;;;5283911;28;20020;-68
2022/08/26 10:23:16;;;;;;;4.70;0.82;;;;;;;;;;5284228;28;20074;-67
2022/08/26 10:25:53;;;;;;;4.65;0.75;;;;;;;;;;5283146;28;20065;-68
2022/08/26 10:28:29;;;;;;;4.35;0.43;;;;;;;;;;5284123;28;20027;-68
2022/08/26 10:31:07;;;;;;;6.10;0.60;;;;;;;;;;5284369;28;20206;-68
2022/08/26 10:33:39;;;;;;;6.15;0.50;;;;;;;;;;5282870;28;20020;-68
2022/08/26 10:36:47;;;;;;;7.47;0.50;;;;;;;;;;5283907;28;20070;-68
2022/08/26 10:39:06;;;;;;;6.95;0.40;;;;;;;;;;5283368;28;20029;-68
2022/08/26 10:41:40;;;;;;;3.70;0.52;;;;;;;;;;5283516;28;20095;-68
2022/08/26 10:44:13;;;;;;;5.05;0.73;;;;;;;;;;5284039;28;20413;-68
2022/08/26 10:46:48;;;;;;;3.25;0.30;;;;;;;;;;5282552;28;20031;-68
2022/08/26 10:49:20;;;;;;;5.07;0.90;;;;;;;;;;5284012;28;20476;-68
2022/08/26 10:52:01;;;;;;;3.05;0.20;;;;;;;;;;5283307;28;20028;-68
2022/08/26 10:54:44;;;;;;;7.82;0.43;;;;;;;;;;5282622;28;20048;-68
2022/08/26 10:57:25;;;;;;;4.35;0.43;;;;;;;;;;5283906;28;20024;-68
2022/08/26 11:01:40;;;;;;;3.90;0.30;;;;;;;;;;5283084;28;20020;-69
2022/08/26 11:02:54;;;;;;;4.85;0.30;;;;;;;;;;5282956;28;20127;-68
2022/08/26 11:05:25;;;;;;;9.48;0.70;;;;;;;;;;5282960;28;20035;-68
2022/08/26 11:08:15;;;;;;;2.67;0.27;;;;;;;;;;5282642;28;20100;-68
2022/08/26 11:10:59;;;;;;;3.42;0.30;;;;;;;;;;5282834;28;20390;-68
2022/08/26 11:13:49;;;;;;;2.60;0.30;;;;;;;;;;5282071;28;20017;-68
2022/08/26 11:16:43;;;;;;;3.60;0.28;;;;;;;;;;5283465;28;20361;-68
2022/08/26 11:19:29;;;;;;;2.80;0.30;;;;;;;;;;5283331;28;20389;-68
2022/08/26 11:22:01;;;;;;;7.93;0.60;;;;;;;;;;5282240;28;20028;-68
2022/08/26 11:24:41;;;;;;;4.88;0.30;;;;;;;;;;5282591;28;20016;-68
2022/08/26 11:27:27;;;;;;;6.30;0.30;;;;;;;;;;5283014;28;20445;-68
2022/08/26 11:30:01;;;;;;;4.38;0.30;;;;;;;;;;5282555;28;20032;-68
2022/08/26 11:32:32;;;;;;;4.63;0.30;;;;;;;;;;5282343;28;20012;-68
2022/08/26 11:35:05;;;;;;;4.20;0.30;;;;;;;;;;5282351;28;20501;-68
2022/08/26 11:37:36;;;;;;;4.80;0.40;;;;;;;;;;5282199;28;20032;-68
2022/08/26 11:40:10;;;;;;;8.07;0.50;;;;;;;;;;5282831;28;20417;-68
2022/08/26 11:42:43;;;;;;;2.78;0.30;;;;;;;;;;5281344;28;20024;-68
2022/08/26 11:45:23;;;;;;;4.65;0.30;;;;;;;;;;5282883;28;20028;-67
2022/08/26 11:47:54;;;;;;;3.10;0.30;;;;;;;;;;5281510;28;20021;-67
2022/08/26 11:50:27;;;;;;;4.32;0.20;;;;;;;;;;5281137;28;20483;-68
2022/08/26 11:53:04;;;;;;;6.57;0.38;;;;;;;;;;5282419;28;20109;-67
2022/08/26 11:55:40;;;;;;;6.47;0.40;;;;;;;;;;5280997;28;20025;-68
2022/08/26 11:58:13;;;;;;;5.95;0.30;;;;;;;;;;5282784;28;20008;-67
2022/08/26 12:00:50;;;;;;;4.53;0.30;;;;;;;;;;5281972;28;20478;-68
2022/08/26 12:03:23;;;;;;;4.97;0.30;;;;;;;;;;5281262;28;20036;-68
2022/08/26 12:05:56;;;;;;;7.93;0.85;;;;;;;;;;5282301;28;20367;-68
2022/08/26 12:08:29;;;;;;;5.30;0.30;;;;;;;;;;5281789;28;20483;-68
2022/08/26 12:11:05;;;;;;;6.40;0.30;;;;;;;;;;5281224;28;20031;-68
2022/08/26 12:13:37;;;;;;;3.58;0.20;;;;;;;;;;5281507;28;20017;-69
2022/08/26 12:16:09;;;;;;;3.90;0.35;;;;;;;;;;5282081;28;20021;-68
2022/08/26 12:18:40;;;;;;;2.50;0.27;;;;;;;;;;5280641;28;20022;-68
2022/08/26 12:21:13;;;;;;;2.70;0.30;;;;;;;;;;5282301;28;20618;-67
2022/08/26 12:23:45;;;;;;;3.53;0.30;;;;;;;;;;5280612;28;20277;-68
2022/08/26 12:26:21;;;;;;;9.05;0.57;;;;;;;;;;5281852;28;20016;-68
2022/08/26 12:28:54;;;;;;;5.18;0.30;;;;;;;;;;5281037;28;20031;-67
2022/08/26 12:31:31;;;;;;;2.83;0.40;;;;;;;;;;5280616;28;20016;-68
2022/08/26 12:34:04;;;;;;;4.75;0.30;;;;;;;;;;5281637;28;20020;-67
2022/08/26 12:36:41;;;;;;;4.07;0.38;;;;;;;;;;5281122;28;20023;-68
2022/08/26 12:39:14;;;;;;;4.55;0.30;;;;;;;;;;5280684;28;20463;-68
2022/08/26 12:41:47;;;;;;;4.53;0.20;;;;;;;;;;5280859;28;20016;-68
2022/08/26 12:44:34;;;;;;;3.92;0.30;;;;;;;;;;5281632;28;20463;-67
2022/08/26 12:47:11;;;;;;;4.88;0.30;;;;;;;;;;5280673;28;20078;-67
2022/08/26 12:49:42;;;;;;;4.20;0.25;;;;;;;;;;5280874;28;20537;-68
2022/08/26 12:52:30;;;;;;;3.83;0.30;;;;;;;;;;5280714;28;20178;-68
2022/08/26 12:55:05;;;;;;;2.73;0.30;;;;;;;;;;5281400;28;20116;-68
2022/08/26 12:57:36;;;;;;;3.70;0.30;;;;;;;;;;5280519;28;20394;-68
2022/08/26 13:00:26;;;;;;;4.07;0.70;;;;;;;;;;5280824;28;20139;-67
2022/08/26 13:02:58;;;;;;;8.27;0.30;;;;;;;;;;5281175;28;20428;-67
2022/08/26 13:05:36;;;;;;;4.80;0.47;;;;;;;;;;5280553;28;20037;-68
2022/08/26 13:08:08;;;;;;;;;;;;;;;;;;5281025;28;20024;-67
2022/08/26 13:10:41;;;;;;;3.83;0.25;;;;;;;;;;5280960;28;19912;-67
2022/08/26 13:13:12;;;;;;;4.68;0.30;;;;;;;;;;5280568;28;20028;-67
2022/08/26 13:15:43;;;;;;;4.07;0.30;;;;;;;;;;5280954;28;20021;-67
2022/08/26 13:18:14;;;;;;;4.03;0.28;;;;;;;;;;5281374;28;20033;-67
2022/08/26 13:20:46;;;;;;;4.07;0.37;;;;;;;;;;5279991;28;20020;-67
2022/08/26 13:23:18;;;;;;;3.22;0.30;;;;;;;;;;5281365;28;20021;-67
2022/08/26 13:25:50;;;;;;;3.53;0.30;;;;;;;;;;5280830;28;20345;-68
2022/08/26 13:28:21;;;;;;;3.58;0.30;;;;;;;;;;5280489;28;20028;-67
2022/08/26 13:30:52;;;;;;;4.53;0.30;;;;;;;;;;5280669;28;20033;-67
2022/08/26 13:33:24;;;;;;;5.95;0.38;;;;;;;;;;5280865;28;20008;-68
2022/08/26 13:35:55;;;;;;;3.00;0.30;;;;;;;;;;5280429;28;20111;-68
2022/08/26 13:38:26;;;;;;;2.97;0.28;;;;;;;;;;5280463;28;20016;-67
2022/08/26 13:40:58;;;;;;;4.95;0.40;;;;;;;;;;5281176;28;20020;-67
2022/08/26 13:43:30;;;;;;;6.72;0.77;;;;;;;;;;5279799;28;20017;-67
2022/08/26 13:46:01;;;;;;;7.75;0.30;;;;;;;;;;5281300;28;20111;-67
2022/08/26 13:48:33;;;;;;;5.35;0.30;;;;;;;;;;5279846;28;20027;-68
2022/08/26 13:51:05;;;;;;;3.65;0.30;;;;;;;;;;5281012;28;20381;-67
2022/08/26 13:53:36;;;;;;;7.72;0.50;;;;;;;;;;5280378;28;20016;-68
2022/08/26 13:56:07;;;;;;;6.50;0.47;;;;;;;;;;5280328;28;20025;-68
2022/08/26 13:58:38;;;;;;;7.68;0.65;;;;;;;;;;5280533;28;20335;-67
2022/08/26 14:01:10;;;;;;;7.53;0.70;;;;;;;;;;5281099;28;20017;-67
2022/08/26 14:03:42;;;;;;;10.50;0.88;;;;;;;;;;5279564;28;20040;-67
2022/08/26 14:06:13;;;;;;;6.18;0.90;;;;;;;;;;5280830;28;20032;-67
2022/08/26 14:08:44;;;;;;;5.78;0.90;;;;;;;;;;5280192;28;20427;-67
2022/08/26 14:11:16;;;;;;;6.13;0.55;;;;;;;;;;5283861;28;20089;-67
2022/08/26 14:13:47;;;;;;;2.57;0.57;;;;;;;;;;5284286;28;20013;-67
2022/08/26 14:16:31;;;;;;;1.67;0.40;;;;;;;;;;5283902;28;20271;-67
2022/08/26 14:19:04;;;;;;;2.92;0.52;;;;;;;;;;5284570;28;20315;-67
2022/08/26 14:21:37;;;;;;;11.40;1.50;;;;;;;;;;5284070;28;20031;-67
2022/08/26 14:24:08;;;;;;;10.27;1.00;;;;;;;;;;5283691;28;20031;-66
2022/08/26 14:26:40;;;;;;;12.70;1.40;;;;;;;;;;5283901;28;20399;-66
2022/08/26 14:29:11;;;;;;;7.80;0.98;;;;;;;;;;5284466;28;20311;-67
2022/08/26 14:31:42;;;;;;;9.70;1.13;;;;;;;;;;5283005;28;20028;-66
2022/08/26 14:34:13;;;;;;;5.93;1.00;;;;;;;;;;5284563;28;20076;-68
2022/08/26 14:36:44;;;;;;;7.38;1.50;;;;;;;;;;5283876;28;20089;-66
2022/08/26 14:39:16;;;;;;;5.35;1.05;;;;;;;;;;5283513;28;20029;-66
2022/08/26 14:41:48;;;;;;;7.27;1.13;;;;;;;;;;5280463;28;20016;-65
2022/08/26 14:44:20;;;;;;;3.95;1.15;;;;;;;;;;5274789;28;20263;-65
2022/08/26 14:46:52;;;;;;;5.80;1.00;;;;;;;;;;5283206;28;20031;-66
2022/08/26 14:49:23;;;;;;;8.88;1.20;;;;;;;;;;5283808;28;20025;-66
2022/08/26 14:51:55;;;;;;;7.50;1.52;;;;;;;;;;5282827;28;20024;-66
2022/08/26 14:54:28;;;;;;;7.22;1.75;;;;;;;;;;5283092;28;20020;-66
2022/08/26 14:57:02;;;;;;;6.53;1.80;;;;;;;;;;5283769;28;20031;-66
2022/08/26 14:59:37;;;;;;;6.20;1.48;;;;;;;;;;5282585;28;20500;-66
2022/08/26 15:02:09;;;;;;;7.95;1.65;;;;;;;;;;5283618;28;20411;-66
2022/08/26 15:04:40;;;;;;;8.43;2.20;;;;;;;;;;5273924;28;20048;-66
2022/08/26 15:07:11;;;;;;;4.03;1.20;;;;;;;;;;5280876;28;20467;-66
2022/08/26 15:09:43;;;;;;;6.40;1.48;;;;;;;;;;5281451;28;20371;-66
2022/08/26 15:12:14;;;;;;;5.65;1.30;;;;;;;;;;5281375;28;20021;-66
2022/08/26 15:14:45;;;;;;;7.68;1.10;;;;;;;;;;5280874;28;20020;-66
2022/08/26 15:17:16;;;;;;;4.05;0.88;;;;;;;;;;5281857;28;20021;-66
2022/08/26 15:19:48;;;;;;;6.00;1.17;;;;;;;;;;5276606;28;20550;-66
2022/08/26 15:22:19;;;;;;;6.55;0.80;;;;;;;;;;5280658;28;20008;-66
2022/08/26 15:24:50;;;;;;;6.93;1.07;;;;;;;;;;5281446;28;20075;-66